createdAt,value
2022-12-29T00:00:56.716Z,100785.81
2022-12-29T00:03:23.701Z,100778.09
2022-12-29T00:05:56.642Z,100779.00
2022-12-29T00:08:40.645Z,100778.16
2022-12-29T00:11:10.405Z,100770.78
2022-12-29T00:13:55.820Z,100772.97
2022-12-29T00:16:23.126Z,100767.66
2022-12-29T00:18:50.058Z,100765.28
2022-12-29T00:21:58.530Z,100762.47
2022-12-29T00:24:51.038Z,100765.00
2022-12-29T00:27:36.973Z,100773.53
2022-12-29T00:30:35.808Z,100765.28
2022-12-29T00:33:34.445Z,100764.72
2022-12-29T00:36:10.008Z,100762.91
2022-12-29T00:39:03.725Z,100765.34
2022-12-29T00:41:51.062Z,100763.41
2022-12-29T00:44:18.481Z,100758.88
2022-12-29T00:46:45.824Z,100757.78
2022-12-29T00:49:34.469Z,100759.34
2022-12-29T00:52:10.763Z,100767.22
2022-12-29T00:54:40.963Z,100758.97
2022-12-29T00:57:09.868Z,100755.91
2022-12-29T00:59:38.761Z,100755.81
2022-12-29T01:02:06.321Z,100751.31
2022-12-29T01:04:33.608Z,100754.44
2022-12-29T01:07:03.537Z,100757.41
2022-12-29T01:09:48.892Z,100754.63
2022-12-29T01:12:15.818Z,100754.91
2022-12-29T01:14:43.488Z,100752.28
2022-12-29T01:17:10.857Z,100748.50
2022-12-29T01:19:39.105Z,100750.34
2022-12-29T01:22:06.076Z,100748.25
2022-12-29T01:24:34.165Z,100752.84
2022-12-29T01:27:03.803Z,100748.28
2022-12-29T01:29:31.032Z,100757.66
2022-12-29T01:31:58.414Z,100753.56
2022-12-29T01:34:25.362Z,100747.72
2022-12-29T01:36:53.023Z,100741.66
2022-12-29T01:39:20.161Z,100741.25
2022-12-29T01:41:47.424Z,100745.03
2022-12-29T01:44:54.578Z,100734.78
2022-12-29T01:47:33.583Z,100737.28
2022-12-29T01:50:06.931Z,100732.16
2022-12-29T01:52:38.399Z,100727.28
2022-12-29T01:55:06.770Z,100730.81
2022-12-29T01:57:39.123Z,100723.38
2022-12-29T02:00:10.234Z,100716.84
2022-12-29T02:02:41.961Z,100715.44
2022-12-29T02:05:17.259Z,100711.53
2022-12-29T02:07:46.473Z,100710.72
2022-12-29T02:10:13.948Z,100707.06
2022-12-29T02:12:42.132Z,100703.97
2022-12-29T02:15:09.920Z,100711.75
2022-12-29T02:18:01.421Z,100709.56
2022-12-29T02:20:44.540Z,100707.13
2022-12-29T02:23:42.172Z,100696.53
2022-12-29T02:26:33.220Z,100699.22
2022-12-29T02:29:42.356Z,100684.25
2022-12-29T02:32:21.523Z,100682.13
2022-12-29T02:35:00.227Z,100681.13
2022-12-29T02:37:29.542Z,100688.81
2022-12-29T02:40:24.340Z,100685.91
2022-12-29T02:43:18.764Z,100681.09
2022-12-29T02:46:15.891Z,100688.81
2022-12-29T02:48:51.973Z,100688.78
2022-12-29T02:51:31.214Z,100682.19
2022-12-29T02:54:19.562Z,100683.28
2022-12-29T02:56:48.118Z,100687.16
2022-12-29T02:59:16.203Z,100668.19
2022-12-29T03:02:21.589Z,100685.88
2022-12-29T03:05:00.133Z,100680.84
2022-12-29T03:07:45.998Z,100675.22
2022-12-29T03:10:19.097Z,100662.50
2022-12-29T03:13:16.637Z,100673.31
2022-12-29T03:16:01.027Z,100658.66
2022-12-29T03:18:46.649Z,100663.66
2022-12-29T03:21:22.067Z,100649.47
2022-12-29T03:23:55.974Z,100658.69
2022-12-29T03:26:24.188Z,100661.53
2022-12-29T03:28:58.624Z,100649.66
2022-12-29T03:31:29.755Z,100647.09
2022-12-29T03:33:59.036Z,100649.38
2022-12-29T03:36:35.327Z,100649.22
2022-12-29T03:39:12.901Z,100648.84
2022-12-29T03:41:44.065Z,100644.25
2022-12-29T03:44:12.167Z,100631.69
2022-12-29T03:46:39.671Z,100639.53
2022-12-29T03:49:07.109Z,100642.78
2022-12-29T03:51:34.065Z,100643.41
2022-12-29T03:54:02.343Z,100644.31
2022-12-29T03:56:29.529Z,100646.06
2022-12-29T03:58:56.540Z,100653.56
2022-12-29T04:01:38.247Z,100642.34
2022-12-29T04:04:05.543Z,100635.22
2022-12-29T04:06:32.424Z,100626.31
2022-12-29T04:09:08.509Z,100635.66
2022-12-29T04:11:40.723Z,100638.25
2022-12-29T04:14:08.099Z,100640.66
2022-12-29T04:16:40.000Z,100642.69
2022-12-29T04:19:08.772Z,100634.34
2022-12-29T04:21:36.992Z,100632.00
2022-12-29T04:24:07.653Z,100630.34
2022-12-29T04:26:39.597Z,100633.28
2022-12-29T04:29:45.289Z,100628.25
2022-12-29T04:32:39.374Z,100626.94
2022-12-29T04:35:07.235Z,100623.66
2022-12-29T04:37:34.413Z,100620.03
2022-12-29T04:40:02.904Z,100622.56
2022-12-29T04:42:34.773Z,100625.84
2022-12-29T04:45:05.638Z,100625.59
2022-12-29T04:47:54.650Z,100624.25
2022-12-29T04:50:27.722Z,100627.72
2022-12-29T04:53:04.641Z,100618.69
2022-12-29T04:55:33.392Z,100614.00
2022-12-29T04:58:01.229Z,100612.31
2022-12-29T05:00:30.597Z,100606.13
2022-12-29T05:02:58.072Z,100604.22
2022-12-29T05:05:25.947Z,100600.94
2022-12-29T05:07:52.821Z,100606.09
2022-12-29T05:10:20.076Z,100615.25
2022-12-29T05:12:48.887Z,100611.81
2022-12-29T05:15:16.117Z,100624.84
2022-12-29T05:17:44.036Z,100627.91
2022-12-29T05:20:11.357Z,100642.19
2022-12-29T05:22:38.769Z,100640.44
2022-12-29T05:25:06.850Z,100646.06
2022-12-29T05:27:52.615Z,100652.75
2022-12-29T05:30:29.877Z,100645.63
2022-12-29T05:32:58.799Z,100642.41
2022-12-29T05:35:27.422Z,100650.94
2022-12-29T05:37:54.566Z,100641.84
2022-12-29T05:40:21.438Z,100640.31
2022-12-29T05:42:48.386Z,100634.00
2022-12-29T05:45:32.737Z,100652.16
2022-12-29T05:48:37.632Z,100640.81
2022-12-29T05:51:19.824Z,100651.97
2022-12-29T05:53:48.859Z,100640.38
2022-12-29T05:56:16.957Z,100640.66
2022-12-29T05:58:46.057Z,100637.28
2022-12-29T06:01:13.030Z,100644.03
2022-12-29T06:03:46.086Z,100639.00
2022-12-29T06:06:15.458Z,100641.94
2022-12-29T06:08:43.005Z,100644.09
2022-12-29T06:11:11.081Z,100647.53
2022-12-29T06:13:39.474Z,100647.03
2022-12-29T06:16:07.506Z,100646.47
2022-12-29T06:18:36.352Z,100641.97
2022-12-29T06:21:06.422Z,100645.19
2022-12-29T06:23:33.358Z,100643.94
2022-12-29T06:26:00.324Z,100651.50
2022-12-29T06:28:27.297Z,100665.91
2022-12-29T06:30:54.253Z,100661.81
2022-12-29T06:33:22.105Z,100674.38
2022-12-29T06:35:49.307Z,100678.63
2022-12-29T06:38:16.172Z,100686.66
2022-12-29T06:40:46.127Z,100689.88
2022-12-29T06:43:33.389Z,100678.75
2022-12-29T06:46:27.172Z,100676.84
2022-12-29T06:48:54.085Z,100678.53
2022-12-29T06:51:20.958Z,100672.47
2022-12-29T06:53:47.867Z,100683.56
2022-12-29T06:56:14.888Z,100688.94
2022-12-29T06:58:41.808Z,100685.78
2022-12-29T07:01:08.712Z,100680.81
2022-12-29T07:03:35.919Z,100683.66
2022-12-29T07:06:02.864Z,100694.66
2022-12-29T07:08:29.805Z,100688.22
2022-12-29T07:10:56.718Z,100677.03
2022-12-29T07:13:24.217Z,100673.31
2022-12-29T07:15:51.025Z,100671.19
2022-12-29T07:18:18.010Z,100674.69
2022-12-29T07:20:45.172Z,100676.84
2022-12-29T07:23:15.487Z,100678.03
2022-12-29T07:25:42.624Z,100677.66
2022-12-29T07:28:09.690Z,100683.28
2022-12-29T07:30:38.178Z,100676.13
2022-12-29T07:33:05.116Z,100678.84
2022-12-29T07:35:32.077Z,100681.06
2022-12-29T07:37:59.925Z,100685.56
2022-12-29T07:40:27.012Z,100685.00
2022-12-29T07:42:56.228Z,100679.31
2022-12-29T07:45:32.908Z,100684.84
2022-12-29T07:48:09.567Z,100693.84
2022-12-29T07:50:37.482Z,100692.31
2022-12-29T07:53:08.817Z,100684.81
2022-12-29T07:55:38.454Z,100680.84
2022-12-29T07:58:09.537Z,100688.16
2022-12-29T08:00:36.708Z,100685.16
2022-12-29T08:03:04.040Z,100679.91
2022-12-29T08:05:32.976Z,100683.78
2022-12-29T08:07:59.948Z,100684.38
2022-12-29T08:10:27.714Z,100677.09
2022-12-29T08:12:54.607Z,100670.38
2022-12-29T08:15:24.425Z,100658.41
2022-12-29T08:17:54.127Z,100653.34
2022-12-29T08:20:22.221Z,100650.03
2022-12-29T08:22:49.284Z,100659.78
2022-12-29T08:25:16.151Z,100668.09
2022-12-29T08:27:43.040Z,100683.75
2022-12-29T08:30:10.740Z,100687.22
2022-12-29T08:32:38.166Z,100693.56
2022-12-29T08:35:05.579Z,100687.34
2022-12-29T08:37:34.174Z,100686.16
2022-12-29T08:40:04.817Z,100691.88
2022-12-29T08:42:32.591Z,100682.94
2022-12-29T08:45:00.464Z,100690.66
2022-12-29T08:47:27.874Z,100686.72
2022-12-29T08:49:54.699Z,100685.41
2022-12-29T08:52:21.619Z,100680.41
2022-12-29T08:54:48.607Z,100671.38
2022-12-29T08:57:15.524Z,100657.03
2022-12-29T08:59:54.605Z,100652.38
2022-12-29T09:02:24.570Z,100646.22
2022-12-29T09:04:52.545Z,100644.75
2022-12-29T09:07:19.551Z,100651.47
2022-12-29T09:09:46.504Z,100654.59
2022-12-29T09:12:13.540Z,100646.84
2022-12-29T09:14:40.783Z,100648.63
2022-12-29T09:17:26.077Z,100644.81
2022-12-29T09:19:53.477Z,100641.69
2022-12-29T09:22:20.481Z,100644.13
2022-12-29T09:24:47.389Z,100645.81
2022-12-29T09:27:14.365Z,100643.75
2022-12-29T09:29:41.662Z,100638.22
2022-12-29T09:32:10.622Z,100635.69
2022-12-29T09:34:40.903Z,100633.66
2022-12-29T09:37:07.797Z,100643.53
2022-12-29T09:39:34.656Z,100646.13
2022-12-29T09:42:04.505Z,100638.00
2022-12-29T09:44:40.556Z,100636.28
2022-12-29T09:47:12.601Z,100648.06
2022-12-29T09:49:47.173Z,100632.38
2022-12-29T09:52:22.383Z,100611.16
2022-12-29T09:55:00.563Z,100606.69
2022-12-29T09:57:39.804Z,100600.00
2022-12-29T10:00:19.121Z,100603.25
2022-12-29T10:02:59.994Z,100608.31
2022-12-29T10:05:48.095Z,100610.47
2022-12-29T10:08:33.659Z,100610.06
2022-12-29T10:11:31.213Z,100595.72
2022-12-29T10:14:25.813Z,100602.69
2022-12-29T10:17:16.392Z,100606.84
2022-12-29T10:19:56.124Z,100610.09
2022-12-29T10:23:00.538Z,100614.03
2022-12-29T10:25:33.152Z,100602.03
2022-12-29T10:28:04.959Z,100598.97
2022-12-29T10:30:35.787Z,100585.25
2022-12-29T10:33:09.792Z,100588.38
2022-12-29T10:35:40.186Z,100582.31
2022-12-29T10:38:19.685Z,100575.81
2022-12-29T10:40:58.086Z,100582.94
2022-12-29T10:43:39.037Z,100577.97
2022-12-29T10:46:10.790Z,100578.19
2022-12-29T10:48:38.548Z,100578.06
2022-12-29T10:51:09.791Z,100576.03
2022-12-29T10:53:45.029Z,100577.38
2022-12-29T10:56:29.029Z,100573.94
2022-12-29T10:58:58.180Z,100578.28
2022-12-29T11:01:36.206Z,100579.50
2022-12-29T11:04:49.664Z,100575.81
2022-12-29T11:07:25.124Z,100572.69
2022-12-29T11:09:54.142Z,100576.44
2022-12-29T11:12:25.407Z,100576.63
2022-12-29T11:15:11.555Z,100582.63
2022-12-29T11:17:55.331Z,100562.13
2022-12-29T11:20:34.854Z,100571.66
2022-12-29T11:23:03.455Z,100570.81
2022-12-29T11:25:30.613Z,100569.16
2022-12-29T11:28:14.997Z,100562.34
2022-12-29T11:30:42.328Z,100556.13
2022-12-29T11:33:10.348Z,100551.53
2022-12-29T11:35:43.492Z,100547.63
2022-12-29T11:38:27.047Z,100540.56
2022-12-29T11:40:54.133Z,100542.66
2022-12-29T11:43:38.228Z,100538.72
2022-12-29T11:46:06.474Z,100539.34
2022-12-29T11:48:40.442Z,100534.94
2022-12-29T11:51:08.845Z,100529.31
2022-12-29T11:53:45.247Z,100530.09
2022-12-29T11:56:19.673Z,100531.97
2022-12-29T11:58:46.740Z,100523.19
2022-12-29T12:01:20.752Z,100519.00
2022-12-29T12:04:13.360Z,100518.72
2022-12-29T12:07:01.613Z,100512.38
2022-12-29T12:09:33.876Z,100513.91
2022-12-29T12:12:02.803Z,100520.16
2022-12-29T12:15:00.663Z,100507.94
2022-12-29T12:18:01.308Z,100520.22
2022-12-29T12:20:45.623Z,100519.81
2022-12-29T12:23:31.002Z,100515.25
2022-12-29T12:26:21.726Z,100508.34
2022-12-29T12:29:15.449Z,100512.31
2022-12-29T12:31:50.863Z,100511.84
2022-12-29T12:34:25.870Z,100510.59
2022-12-29T12:36:57.297Z,100515.78
2022-12-29T12:39:31.657Z,100516.22
2022-12-29T12:42:14.862Z,100511.03
2022-12-29T12:45:39.031Z,100510.00
2022-12-29T12:48:11.724Z,100496.00
2022-12-29T12:50:58.861Z,100502.59
2022-12-29T12:53:56.941Z,100508.69
2022-12-29T12:56:44.749Z,100509.59
2022-12-29T12:59:33.215Z,100510.84
2022-12-29T13:02:18.994Z,100505.00
2022-12-29T13:05:26.876Z,100510.16
2022-12-29T13:08:38.806Z,100504.41
2022-12-29T13:11:27.144Z,100510.47
2022-12-29T13:14:20.874Z,100499.44
2022-12-29T13:17:05.701Z,100498.38
2022-12-29T13:20:11.273Z,100504.41
2022-12-29T13:22:43.731Z,100495.94
2022-12-29T13:25:34.735Z,100494.44
2022-12-29T13:28:15.499Z,100491.06
2022-12-29T13:31:08.944Z,100498.53
2022-12-29T13:34:06.566Z,100502.50
2022-12-29T13:36:49.326Z,100504.81
2022-12-29T13:40:00.307Z,100505.84
2022-12-29T13:42:28.171Z,100501.75
2022-12-29T13:45:13.351Z,100506.69
2022-12-29T13:47:53.978Z,100508.34
2022-12-29T13:50:24.085Z,100514.00
2022-12-29T13:52:50.938Z,100515.22
2022-12-29T13:55:29.983Z,100513.53
2022-12-29T13:58:14.479Z,100511.44
2022-12-29T14:01:10.792Z,100501.59
2022-12-29T14:03:43.996Z,100506.97
2022-12-29T14:06:24.882Z,100504.41
2022-12-29T14:09:00.733Z,100516.88
2022-12-29T14:11:36.391Z,100501.78
2022-12-29T14:14:21.017Z,100496.94
2022-12-29T14:16:48.878Z,100501.09
2022-12-29T14:19:27.624Z,100502.34
2022-12-29T14:21:59.069Z,100487.06
2022-12-29T14:24:44.513Z,100504.09
2022-12-29T14:27:11.333Z,100508.84
2022-12-29T14:29:40.919Z,100510.94
2022-12-29T14:32:22.727Z,100508.22
2022-12-29T14:34:52.641Z,100506.16
2022-12-29T14:37:40.192Z,100508.84
2022-12-29T14:40:26.189Z,100507.84
2022-12-29T14:42:55.843Z,100510.97
2022-12-29T14:45:34.240Z,100517.63
2022-12-29T14:48:01.594Z,100515.13
2022-12-29T14:50:40.553Z,100521.75
2022-12-29T14:53:08.230Z,100520.28
2022-12-29T14:55:47.940Z,100528.56
2022-12-29T14:58:30.190Z,100526.94
2022-12-29T15:00:57.584Z,100525.84
2022-12-29T15:03:30.599Z,100521.28
2022-12-29T15:06:09.165Z,100517.72
2022-12-29T15:08:49.276Z,100522.66
2022-12-29T15:11:20.395Z,100525.94
2022-12-29T15:13:49.791Z,100525.63
2022-12-29T15:16:32.466Z,100525.22
2022-12-29T15:19:00.408Z,100518.78
2022-12-29T15:21:33.220Z,100526.63
2022-12-29T15:24:01.304Z,100523.75
2022-12-29T15:26:40.563Z,100525.44
2022-12-29T15:29:36.833Z,100534.69
2022-12-29T15:32:16.796Z,100540.41
2022-12-29T15:34:45.359Z,100534.66
2022-12-29T15:37:42.380Z,100537.56
2022-12-29T15:40:25.347Z,100528.03
2022-12-29T15:43:10.669Z,100529.69
2022-12-29T15:45:38.306Z,100524.03
2022-12-29T15:48:08.515Z,100520.09
2022-12-29T15:50:38.377Z,100528.63
2022-12-29T15:53:12.592Z,100526.97
2022-12-29T15:55:42.751Z,100524.03
2022-12-29T15:58:25.620Z,100524.56
2022-12-29T16:00:58.349Z,100521.84
2022-12-29T16:03:33.734Z,100527.03
2022-12-29T16:06:34.512Z,100547.72
2022-12-29T16:09:16.595Z,100540.47
2022-12-29T16:11:48.162Z,100551.88
2022-12-29T16:14:19.436Z,100548.13
2022-12-29T16:16:48.862Z,100542.78
2022-12-29T16:19:37.075Z,100538.25
2022-12-29T16:22:12.337Z,100547.72
2022-12-29T16:24:41.187Z,100538.25
2022-12-29T16:27:40.899Z,100539.47
2022-12-29T16:30:25.354Z,100543.69
2022-12-29T16:32:58.527Z,100532.91
2022-12-29T16:35:44.525Z,100536.75
2022-12-29T16:38:35.381Z,100529.66
2022-12-29T16:41:03.906Z,100542.00
2022-12-29T16:43:36.258Z,100545.56
2022-12-29T16:46:03.070Z,100539.94
2022-12-29T16:48:34.051Z,100539.31
2022-12-29T16:51:13.237Z,100538.38
2022-12-29T16:53:43.491Z,100544.88
2022-12-29T16:56:17.763Z,100548.13
2022-12-29T16:58:49.465Z,100544.41
2022-12-29T17:01:20.426Z,100535.13
2022-12-29T17:03:54.996Z,100527.47
2022-12-29T17:06:23.731Z,100529.53
2022-12-29T17:08:51.961Z,100528.25
2022-12-29T17:11:45.809Z,100526.53
2022-12-29T17:14:42.855Z,100536.25
2022-12-29T17:17:33.160Z,100541.66
2022-12-29T17:20:04.275Z,100546.28
2022-12-29T17:22:34.139Z,100540.75
2022-12-29T17:25:03.114Z,100552.81
2022-12-29T17:27:45.726Z,100544.88
2022-12-29T17:30:16.163Z,100554.91
2022-12-29T17:32:47.637Z,100543.38
2022-12-29T17:35:20.564Z,100542.78
2022-12-29T17:37:47.886Z,100542.78
2022-12-29T17:40:17.680Z,100553.03
2022-12-29T17:42:47.602Z,100560.63
2022-12-29T17:45:17.497Z,100553.44
2022-12-29T17:47:44.810Z,100559.16
2022-12-29T17:50:20.684Z,100561.72
2022-12-29T17:53:19.917Z,100552.56
2022-12-29T17:55:47.062Z,100551.72
2022-12-29T17:58:16.878Z,100556.69
2022-12-29T18:00:44.154Z,100552.03
2022-12-29T18:03:19.363Z,100550.25
2022-12-29T18:05:46.625Z,100546.09
2022-12-29T18:08:13.485Z,100555.53
2022-12-29T18:10:40.594Z,100552.28
2022-12-29T18:13:15.006Z,100564.53
2022-12-29T18:15:41.971Z,100566.53
2022-12-29T18:18:14.521Z,100558.72
2022-12-29T18:20:43.493Z,100563.09
2022-12-29T18:23:21.259Z,100548.69
2022-12-29T18:25:50.668Z,100550.97
2022-12-29T18:28:17.959Z,100548.06
2022-12-29T18:30:45.166Z,100545.31
2022-12-29T18:33:21.879Z,100545.03
2022-12-29T18:35:57.579Z,100553.22
2022-12-29T18:38:24.621Z,100541.41
2022-12-29T18:40:52.358Z,100559.88
2022-12-29T18:43:19.895Z,100558.00
2022-12-29T18:45:47.277Z,100551.63
2022-12-29T18:48:15.412Z,100535.72
2022-12-29T18:50:42.875Z,100544.53
2022-12-29T18:53:30.225Z,100545.88
2022-12-29T18:55:59.954Z,100535.31
2022-12-29T18:58:33.890Z,100542.88
2022-12-29T19:01:01.384Z,100532.63
2022-12-29T19:03:28.263Z,100535.88
2022-12-29T19:05:55.557Z,100545.19
2022-12-29T19:08:22.532Z,100530.97
2022-12-29T19:10:51.145Z,100530.41
2022-12-29T19:13:23.785Z,100534.22
2022-12-29T19:15:50.860Z,100534.97
2022-12-29T19:21:09.398Z,100529.94
2022-12-29T19:23:36.236Z,100530.56
2022-12-29T19:26:03.293Z,100533.59
2022-12-29T19:28:30.216Z,100532.63
2022-12-29T19:31:02.866Z,100523.69
2022-12-29T19:33:29.925Z,100517.69
2022-12-29T19:36:03.100Z,100516.38
2022-12-29T19:38:30.203Z,100524.66
2022-12-29T19:40:57.289Z,100517.47
2022-12-29T19:43:24.199Z,100524.13
2022-12-29T19:45:52.601Z,100529.56
2022-12-29T19:48:20.832Z,100525.00
2022-12-29T19:50:47.824Z,100523.19
2022-12-29T19:53:15.620Z,100515.31
2022-12-29T19:55:47.220Z,100515.16
2022-12-29T19:58:15.436Z,100518.88
2022-12-29T20:00:43.754Z,100515.25
2022-12-29T20:03:11.313Z,100514.03
2022-12-29T20:05:39.520Z,100505.19
2022-12-29T20:08:06.663Z,100506.63
2022-12-29T20:10:33.827Z,100508.88
2022-12-29T20:13:00.823Z,100513.16
2022-12-29T20:15:27.705Z,100510.00
2022-12-29T20:20:41.959Z,100508.41
2022-12-29T20:23:09.330Z,100508.66
2022-12-29T20:25:45.619Z,100501.63
2022-12-29T20:28:13.700Z,100502.19
2022-12-29T20:30:40.583Z,100504.84
2022-12-29T20:33:08.604Z,100507.19
2022-12-29T20:35:36.439Z,100495.97
2022-12-29T20:38:04.378Z,100485.47
2022-12-29T20:40:31.308Z,100485.78
2022-12-29T20:42:58.237Z,100487.56
2022-12-29T20:45:25.377Z,100486.47
2022-12-29T20:47:52.447Z,100479.41
2022-12-29T20:50:19.334Z,100481.22
2022-12-29T20:52:47.053Z,100483.69
2022-12-29T20:55:14.214Z,100482.56
2022-12-29T21:00:30.813Z,100475.78
2022-12-29T21:02:59.493Z,100482.03
2022-12-29T21:05:27.619Z,100468.84
2022-12-29T21:07:55.682Z,100474.63
2022-12-29T21:10:22.780Z,100464.13
2022-12-29T21:12:49.785Z,100465.59
2022-12-29T21:15:16.765Z,100469.31
2022-12-29T21:17:44.719Z,100468.06
2022-12-29T21:20:29.994Z,100470.97
2022-12-29T21:22:57.586Z,100458.22
2022-12-29T21:25:24.453Z,100467.56
2022-12-29T21:27:51.661Z,100462.41
2022-12-29T21:30:18.537Z,100473.75
2022-12-29T21:32:45.382Z,100466.06
2022-12-29T21:35:12.194Z,100475.75
2022-12-29T21:37:40.227Z,100473.97
2022-12-29T21:40:07.383Z,100470.72
2022-12-29T21:42:34.569Z,100472.53
2022-12-29T21:45:21.168Z,100458.75
2022-12-29T21:48:07.460Z,100464.47
2022-12-29T21:50:59.231Z,100470.25
2022-12-29T21:53:47.337Z,100461.25
2022-12-29T21:56:16.677Z,100461.00
2022-12-29T21:59:07.445Z,100467.44
2022-12-29T22:01:55.699Z,100465.22
2022-12-29T22:04:43.338Z,100456.88
2022-12-29T22:07:30.822Z,100467.22
2022-12-29T22:10:16.465Z,100471.63
2022-12-29T22:13:01.910Z,100463.78
2022-12-29T22:15:31.703Z,100450.34
2022-12-29T22:17:59.348Z,100446.84
2022-12-29T22:20:28.720Z,100453.44
2022-12-29T22:22:56.010Z,100442.47
2022-12-29T22:25:23.224Z,100438.75
2022-12-29T22:27:55.733Z,100433.13
2022-12-29T22:30:26.904Z,100427.94
2022-12-29T22:32:53.954Z,100437.22
2022-12-29T22:35:21.080Z,100428.88
2022-12-29T22:37:47.866Z,100430.50
2022-12-29T22:40:14.828Z,100426.72
2022-12-29T22:42:42.179Z,100437.69
2022-12-29T22:45:09.366Z,100435.84
2022-12-29T22:47:36.426Z,100434.72
2022-12-29T22:50:04.593Z,100429.66
2022-12-29T22:52:31.693Z,100420.31
2022-12-29T22:55:04.560Z,100428.75
2022-12-29T22:57:33.548Z,100430.22
2022-12-29T23:00:00.496Z,100420.94
2022-12-29T23:02:27.782Z,100424.50
2022-12-29T23:05:04.017Z,100435.81
2022-12-29T23:07:32.610Z,100426.69
2022-12-29T23:09:59.508Z,100428.16
2022-12-29T23:12:29.426Z,100422.59
2022-12-29T23:14:56.406Z,100423.69
2022-12-29T23:17:25.268Z,100422.09
2022-12-29T23:19:52.633Z,100424.34
2022-12-29T23:22:20.211Z,100421.91
2022-12-29T23:24:47.151Z,100417.38
2022-12-29T23:27:14.183Z,100410.22
2022-12-29T23:29:41.148Z,100409.63
2022-12-29T23:32:08.028Z,100408.38
2022-12-29T23:34:35.114Z,100414.59
2022-12-29T23:37:03.331Z,100414.59
2022-12-29T23:39:30.253Z,100408.19
2022-12-29T23:41:57.733Z,100415.81
2022-12-29T23:44:24.637Z,100414.19
2022-12-29T23:46:51.583Z,100418.09
2022-12-29T23:49:18.757Z,100413.16
2022-12-29T23:51:45.855Z,100414.59
2022-12-29T23:54:12.769Z,100412.53
2022-12-29T23:56:40.964Z,100413.78
2022-12-29T23:59:17.083Z,100409.22
